sensor_id;sensor_type;location;lat;lon;timestamp;temperature;humidity
80706;DHT22;70229;48.010;7.852;2023-07-28T00:01:30;20.30;79.30
80706;DHT22;70229;48.010;7.852;2023-07-28T00:03:56;20.10;80.10
80706;DHT22;70229;48.010;7.852;2023-07-28T00:06:23;20.30;80.30
80706;DHT22;70229;48.010;7.852;2023-07-28T00:08:48;20.00;80.50
80706;DHT22;70229;48.010;7.852;2023-07-28T00:11:15;20.00;80.50
80706;DHT22;70229;48.010;7.852;2023-07-28T00:13:42;20.10;80.60
80706;DHT22;70229;48.010;7.852;2023-07-28T00:16:08;20.00;80.90
80706;DHT22;70229;48.010;7.852;2023-07-28T00:18:34;20.00;80.60
80706;DHT22;70229;48.010;7.852;2023-07-28T00:20:59;20.10;81.10
80706;DHT22;70229;48.010;7.852;2023-07-28T00:23:25;20.00;81.70
80706;DHT22;70229;48.010;7.852;2023-07-28T00:25:51;20.00;81.80
80706;DHT22;70229;48.010;7.852;2023-07-28T00:28:17;19.90;82.10
80706;DHT22;70229;48.010;7.852;2023-07-28T00:30:43;20.00;82.00
80706;DHT22;70229;48.010;7.852;2023-07-28T00:33:08;19.90;81.80
80706;DHT22;70229;48.010;7.852;2023-07-28T00:35:34;20.00;82.30
80706;DHT22;70229;48.010;7.852;2023-07-28T00:37:59;20.00;81.40
80706;DHT22;70229;48.010;7.852;2023-07-28T00:40:25;20.00;81.00
80706;DHT22;70229;48.010;7.852;2023-07-28T00:42:50;20.00;81.80
80706;DHT22;70229;48.010;7.852;2023-07-28T00:45:16;20.00;80.70
80706;DHT22;70229;48.010;7.852;2023-07-28T00:47:42;19.90;80.90
80706;DHT22;70229;48.010;7.852;2023-07-28T00:50:11;20.00;80.90
80706;DHT22;70229;48.010;7.852;2023-07-28T00:52:37;20.00;81.20
80706;DHT22;70229;48.010;7.852;2023-07-28T00:55:03;19.80;81.50
80706;DHT22;70229;48.010;7.852;2023-07-28T00:57:29;19.80;81.70
80706;DHT22;70229;48.010;7.852;2023-07-28T00:59:54;19.80;81.90
80706;DHT22;70229;48.010;7.852;2023-07-28T01:02:20;19.70;82.40
80706;DHT22;70229;48.010;7.852;2023-07-28T01:04:47;19.80;82.20
80706;DHT22;70229;48.010;7.852;2023-07-28T01:10:06;19.70;82.50
80706;DHT22;70229;48.010;7.852;2023-07-28T01:12:33;19.70;82.60
80706;DHT22;70229;48.010;7.852;2023-07-28T01:14:59;19.70;82.80
80706;DHT22;70229;48.010;7.852;2023-07-28T01:17:25;19.60;83.20
80706;DHT22;70229;48.010;7.852;2023-07-28T01:19:52;19.70;83.20
80706;DHT22;70229;48.010;7.852;2023-07-28T01:27:40;19.60;84.30
80706;DHT22;70229;48.010;7.852;2023-07-28T01:30:09;19.60;83.40
80706;DHT22;70229;48.010;7.852;2023-07-28T01:32:35;19.60;83.30
80706;DHT22;70229;48.010;7.852;2023-07-28T01:35:02;19.80;83.40
80706;DHT22;70229;48.010;7.852;2023-07-28T01:37:28;19.50;83.60
80706;DHT22;70229;48.010;7.852;2023-07-28T01:39:54;19.50;84.30
80706;DHT22;70229;48.010;7.852;2023-07-28T01:42:20;19.50;85.00
80706;DHT22;70229;48.010;7.852;2023-07-28T01:44:45;19.50;84.10
80706;DHT22;70229;48.010;7.852;2023-07-28T01:47:11;19.60;83.70
80706;DHT22;70229;48.010;7.852;2023-07-28T01:49:37;19.60;83.30
80706;DHT22;70229;48.010;7.852;2023-07-28T01:52:03;19.70;83.20
80706;DHT22;70229;48.010;7.852;2023-07-28T01:54:28;19.60;83.50
80706;DHT22;70229;48.010;7.852;2023-07-28T01:56:54;19.70;83.40
80706;DHT22;70229;48.010;7.852;2023-07-28T01:59:19;19.60;84.00
80706;DHT22;70229;48.010;7.852;2023-07-28T02:01:45;19.60;84.60
80706;DHT22;70229;48.010;7.852;2023-07-28T02:04:12;19.50;84.70
80706;DHT22;70229;48.010;7.852;2023-07-28T02:06:37;19.70;84.40
80706;DHT22;70229;48.010;7.852;2023-07-28T02:09:03;19.60;83.60
80706;DHT22;70229;48.010;7.852;2023-07-28T02:11:28;19.50;83.80
80706;DHT22;70229;48.010;7.852;2023-07-28T02:13:54;19.60;83.50
80706;DHT22;70229;48.010;7.852;2023-07-28T02:16:20;19.70;83.60
80706;DHT22;70229;48.010;7.852;2023-07-28T02:18:45;19.80;83.70
80706;DHT22;70229;48.010;7.852;2023-07-28T02:21:11;19.70;83.50
80706;DHT22;70229;48.010;7.852;2023-07-28T02:23:36;19.80;83.20
80706;DHT22;70229;48.010;7.852;2023-07-28T02:26:02;19.70;83.30
80706;DHT22;70229;48.010;7.852;2023-07-28T02:28:28;19.70;83.30
80706;DHT22;70229;48.010;7.852;2023-07-28T02:30:53;19.80;83.20
80706;DHT22;70229;48.010;7.852;2023-07-28T02:33:19;19.80;83.10
80706;DHT22;70229;48.010;7.852;2023-07-28T02:35:44;19.80;83.00
80706;DHT22;70229;48.010;7.852;2023-07-28T02:38:10;19.80;83.50
80706;DHT22;70229;48.010;7.852;2023-07-28T02:40:35;19.80;83.60
80706;DHT22;70229;48.010;7.852;2023-07-28T02:43:01;19.80;83.50
80706;DHT22;70229;48.010;7.852;2023-07-28T02:45:26;19.70;83.60
80706;DHT22;70229;48.010;7.852;2023-07-28T02:47:52;19.70;83.80
80706;DHT22;70229;48.010;7.852;2023-07-28T02:50:17;19.80;84.00
80706;DHT22;70229;48.010;7.852;2023-07-28T02:52:43;19.80;84.00
80706;DHT22;70229;48.010;7.852;2023-07-28T02:55:09;19.80;83.90
80706;DHT22;70229;48.010;7.852;2023-07-28T02:57:34;19.70;84.30
80706;DHT22;70229;48.010;7.852;2023-07-28T03:00:00;19.70;83.90
80706;DHT22;70229;48.010;7.852;2023-07-28T03:02:25;19.60;83.90
80706;DHT22;70229;48.010;7.852;2023-07-28T03:04:51;19.70;84.00
80706;DHT22;70229;48.010;7.852;2023-07-28T03:07:17;19.70;83.60
80706;DHT22;70229;48.010;7.852;2023-07-28T03:09:42;19.80;84.00
80706;DHT22;70229;48.010;7.852;2023-07-28T03:12:08;19.80;83.50
80706;DHT22;70229;48.010;7.852;2023-07-28T03:14:34;19.90;84.30
80706;DHT22;70229;48.010;7.852;2023-07-28T03:17:00;19.80;84.40
80706;DHT22;70229;48.010;7.852;2023-07-28T03:19:25;19.80;84.40
80706;DHT22;70229;48.010;7.852;2023-07-28T03:21:51;19.70;84.70
80706;DHT22;70229;48.010;7.852;2023-07-28T03:24:17;19.70;84.20
80706;DHT22;70229;48.010;7.852;2023-07-28T03:26:42;19.80;83.20
80706;DHT22;70229;48.010;7.852;2023-07-28T03:29:08;19.80;84.00
80706;DHT22;70229;48.010;7.852;2023-07-28T03:31:33;19.70;84.30
80706;DHT22;70229;48.010;7.852;2023-07-28T03:34:01;19.90;84.00
80706;DHT22;70229;48.010;7.852;2023-07-28T03:36:27;19.70;83.60
80706;DHT22;70229;48.010;7.852;2023-07-28T03:38:53;19.80;84.10
80706;DHT22;70229;48.010;7.852;2023-07-28T03:41:18;19.90;82.70
80706;DHT22;70229;48.010;7.852;2023-07-28T03:43:45;19.90;82.80
80706;DHT22;70229;48.010;7.852;2023-07-28T03:46:11;20.00;83.20
80706;DHT22;70229;48.010;7.852;2023-07-28T03:48:36;20.00;81.60
80706;DHT22;70229;48.010;7.852;2023-07-28T03:51:02;20.10;82.10
80706;DHT22;70229;48.010;7.852;2023-07-28T03:53:28;20.00;83.00
80706;DHT22;70229;48.010;7.852;2023-07-28T03:55:53;19.90;82.50
80706;DHT22;70229;48.010;7.852;2023-07-28T03:58:25;19.90;83.40
80706;DHT22;70229;48.010;7.852;2023-07-28T04:00:52;20.00;82.40
80706;DHT22;70229;48.010;7.852;2023-07-28T04:03:18;20.10;82.30
80706;DHT22;70229;48.010;7.852;2023-07-28T04:05:44;20.00;82.90
80706;DHT22;70229;48.010;7.852;2023-07-28T04:08:09;20.00;82.00
80706;DHT22;70229;48.010;7.852;2023-07-28T04:10:35;20.10;81.50
80706;DHT22;70229;48.010;7.852;2023-07-28T04:13:01;20.20;81.40
80706;DHT22;70229;48.010;7.852;2023-07-28T04:15:26;20.20;80.40
80706;DHT22;70229;48.010;7.852;2023-07-28T04:17:52;20.20;80.50
80706;DHT22;70229;48.010;7.852;2023-07-28T04:20:17;20.20;79.90
80706;DHT22;70229;48.010;7.852;2023-07-28T04:22:43;20.30;79.70
80706;DHT22;70229;48.010;7.852;2023-07-28T04:25:08;20.30;78.90
80706;DHT22;70229;48.010;7.852;2023-07-28T04:27:34;20.40;78.70
80706;DHT22;70229;48.010;7.852;2023-07-28T04:29:59;20.40;78.70
80706;DHT22;70229;48.010;7.852;2023-07-28T04:32:25;20.50;78.20
80706;DHT22;70229;48.010;7.852;2023-07-28T04:34:51;20.60;78.20
80706;DHT22;70229;48.010;7.852;2023-07-28T04:37:17;20.60;78.40
80706;DHT22;70229;48.010;7.852;2023-07-28T04:39:43;20.60;78.00
80706;DHT22;70229;48.010;7.852;2023-07-28T04:42:08;20.70;77.20
80706;DHT22;70229;48.010;7.852;2023-07-28T04:44:36;20.80;77.40
80706;DHT22;70229;48.010;7.852;2023-07-28T04:47:01;20.80;76.90
80706;DHT22;70229;48.010;7.852;2023-07-28T04:49:27;20.70;76.40
80706;DHT22;70229;48.010;7.852;2023-07-28T04:51:52;20.90;77.20
80706;DHT22;70229;48.010;7.852;2023-07-28T04:54:18;21.50;76.90
80706;DHT22;70229;48.010;7.852;2023-07-28T04:56:43;20.90;76.00
80706;DHT22;70229;48.010;7.852;2023-07-28T04:59:10;21.00;75.80
80706;DHT22;70229;48.010;7.852;2023-07-28T05:01:36;21.00;75.80
80706;DHT22;70229;48.010;7.852;2023-07-28T05:04:01;21.10;75.50
80706;DHT22;70229;48.010;7.852;2023-07-28T05:06:27;21.20;75.30
80706;DHT22;70229;48.010;7.852;2023-07-28T05:08:52;21.20;74.70
80706;DHT22;70229;48.010;7.852;2023-07-28T05:11:18;21.30;74.80
80706;DHT22;70229;48.010;7.852;2023-07-28T05:13:44;21.40;74.50
80706;DHT22;70229;48.010;7.852;2023-07-28T05:16:09;21.40;74.50
80706;DHT22;70229;48.010;7.852;2023-07-28T05:18:35;21.40;74.30
80706;DHT22;70229;48.010;7.852;2023-07-28T05:21:02;21.40;74.20
80706;DHT22;70229;48.010;7.852;2023-07-28T05:23:28;21.40;74.20
80706;DHT22;70229;48.010;7.852;2023-07-28T05:25:53;21.50;73.60
80706;DHT22;70229;48.010;7.852;2023-07-28T05:28:19;21.60;73.60
80706;DHT22;70229;48.010;7.852;2023-07-28T05:30:44;21.60;73.20
80706;DHT22;70229;48.010;7.852;2023-07-28T05:33:10;21.70;73.20
80706;DHT22;70229;48.010;7.852;2023-07-28T05:35:35;21.70;73.10
80706;DHT22;70229;48.010;7.852;2023-07-28T05:38:01;21.70;72.90
80706;DHT22;70229;48.010;7.852;2023-07-28T05:40:27;21.70;73.00
80706;DHT22;70229;48.010;7.852;2023-07-28T05:42:52;21.70;72.90
80706;DHT22;70229;48.010;7.852;2023-07-28T05:45:19;21.70;73.10
80706;DHT22;70229;48.010;7.852;2023-07-28T05:47:45;21.80;73.20
80706;DHT22;70229;48.010;7.852;2023-07-28T05:50:11;21.70;73.00
80706;DHT22;70229;48.010;7.852;2023-07-28T05:52:37;21.70;73.10
80706;DHT22;70229;48.010;7.852;2023-07-28T05:55:03;21.70;73.40
80706;DHT22;70229;48.010;7.852;2023-07-28T05:57:28;21.70;73.50
80706;DHT22;70229;48.010;7.852;2023-07-28T05:59:54;21.70;73.40
80706;DHT22;70229;48.010;7.852;2023-07-28T06:02:20;21.60;74.00
80706;DHT22;70229;48.010;7.852;2023-07-28T06:04:45;21.60;74.30
80706;DHT22;70229;48.010;7.852;2023-07-28T06:07:11;21.60;75.50
80706;DHT22;70229;48.010;7.852;2023-07-28T06:09:37;21.60;75.60
80706;DHT22;70229;48.010;7.852;2023-07-28T06:12:03;21.40;76.10
80706;DHT22;70229;48.010;7.852;2023-07-28T06:14:29;21.40;76.70
80706;DHT22;70229;48.010;7.852;2023-07-28T06:16:54;21.30;76.80
80706;DHT22;70229;48.010;7.852;2023-07-28T06:19:20;21.40;76.70
80706;DHT22;70229;48.010;7.852;2023-07-28T06:21:50;21.50;76.90
80706;DHT22;70229;48.010;7.852;2023-07-28T06:24:16;21.40;77.20
80706;DHT22;70229;48.010;7.852;2023-07-28T06:26:42;21.40;76.80
80706;DHT22;70229;48.010;7.852;2023-07-28T06:29:07;21.40;75.90
80706;DHT22;70229;48.010;7.852;2023-07-28T06:31:33;21.30;77.00
80706;DHT22;70229;48.010;7.852;2023-07-28T06:33:58;21.30;77.30
80706;DHT22;70229;48.010;7.852;2023-07-28T06:36:24;21.30;76.80
80706;DHT22;70229;48.010;7.852;2023-07-28T06:38:49;21.30;77.10
80706;DHT22;70229;48.010;7.852;2023-07-28T06:41:17;21.40;75.90
80706;DHT22;70229;48.010;7.852;2023-07-28T06:43:43;21.40;76.40
80706;DHT22;70229;48.010;7.852;2023-07-28T06:46:08;21.40;76.30
80706;DHT22;70229;48.010;7.852;2023-07-28T06:48:34;21.40;76.00
80706;DHT22;70229;48.010;7.852;2023-07-28T06:50:59;21.50;76.70
80706;DHT22;70229;48.010;7.852;2023-07-28T06:53:25;21.50;76.20
80706;DHT22;70229;48.010;7.852;2023-07-28T06:55:50;21.50;74.70
80706;DHT22;70229;48.010;7.852;2023-07-28T06:58:19;21.50;75.00
80706;DHT22;70229;48.010;7.852;2023-07-28T07:00:45;21.50;74.90
80706;DHT22;70229;48.010;7.852;2023-07-28T07:03:10;21.60;74.50
80706;DHT22;70229;48.010;7.852;2023-07-28T07:05:36;21.60;74.40
80706;DHT22;70229;48.010;7.852;2023-07-28T07:08:02;21.60;74.30
80706;DHT22;70229;48.010;7.852;2023-07-28T07:10:28;21.60;74.60
80706;DHT22;70229;48.010;7.852;2023-07-28T07:12:53;21.70;74.50
80706;DHT22;70229;48.010;7.852;2023-07-28T07:15:19;21.60;73.90
80706;DHT22;70229;48.010;7.852;2023-07-28T07:17:44;21.70;73.80
80706;DHT22;70229;48.010;7.852;2023-07-28T07:20:10;21.70;73.60
80706;DHT22;70229;48.010;7.852;2023-07-28T07:22:36;21.70;73.70
80706;DHT22;70229;48.010;7.852;2023-07-28T07:25:03;21.70;73.80
80706;DHT22;70229;48.010;7.852;2023-07-28T07:27:29;21.70;74.00
80706;DHT22;70229;48.010;7.852;2023-07-28T07:29:55;21.70;73.60
80706;DHT22;70229;48.010;7.852;2023-07-28T07:32:20;21.80;73.80
80706;DHT22;70229;48.010;7.852;2023-07-28T07:34:46;21.80;73.90
80706;DHT22;70229;48.010;7.852;2023-07-28T07:37:12;21.90;73.50
80706;DHT22;70229;48.010;7.852;2023-07-28T07:39:38;21.90;72.90
80706;DHT22;70229;48.010;7.852;2023-07-28T07:42:06;21.90;73.10
80706;DHT22;70229;48.010;7.852;2023-07-28T07:44:32;21.90;73.00
80706;DHT22;70229;48.010;7.852;2023-07-28T07:47:00;21.90;73.20
80706;DHT22;70229;48.010;7.852;2023-07-28T07:49:26;22.00;72.60
80706;DHT22;70229;48.010;7.852;2023-07-28T07:51:52;22.00;73.10
80706;DHT22;70229;48.010;7.852;2023-07-28T07:54:18;22.00;72.60
80706;DHT22;70229;48.010;7.852;2023-07-28T07:56:44;21.90;72.60
80706;DHT22;70229;48.010;7.852;2023-07-28T07:59:12;21.90;72.50
80706;DHT22;70229;48.010;7.852;2023-07-28T08:01:37;21.90;73.10
80706;DHT22;70229;48.010;7.852;2023-07-28T08:04:03;22.00;72.60
80706;DHT22;70229;48.010;7.852;2023-07-28T08:06:28;22.00;72.50
80706;DHT22;70229;48.010;7.852;2023-07-28T08:08:54;22.30;72.90
80706;DHT22;70229;48.010;7.852;2023-07-28T08:11:22;22.00;72.30
80706;DHT22;70229;48.010;7.852;2023-07-28T08:13:47;22.00;72.80
80706;DHT22;70229;48.010;7.852;2023-07-28T08:16:23;22.70;72.70
80706;DHT22;70229;48.010;7.852;2023-07-28T08:21:30;22.10;72.40
80706;DHT22;70229;48.010;7.852;2023-07-28T08:24:04;22.10;72.50
80706;DHT22;70229;48.010;7.852;2023-07-28T08:32:12;22.10;71.40
80706;DHT22;70229;48.010;7.852;2023-07-28T08:34:44;22.10;72.10
80706;DHT22;70229;48.010;7.852;2023-07-28T08:40:04;22.10;72.20
80706;DHT22;70229;48.010;7.852;2023-07-28T08:42:35;22.10;72.00
80706;DHT22;70229;48.010;7.852;2023-07-28T08:45:02;21.60;71.80
80706;DHT22;70229;48.010;7.852;2023-07-28T08:47:30;22.30;71.80
80706;DHT22;70229;48.010;7.852;2023-07-28T08:49:55;22.90;71.90
80706;DHT22;70229;48.010;7.852;2023-07-28T08:52:22;22.50;71.20
80706;DHT22;70229;48.010;7.852;2023-07-28T08:54:49;22.50;71.60
80706;DHT22;70229;48.010;7.852;2023-07-28T08:57:15;22.70;72.10
80706;DHT22;70229;48.010;7.852;2023-07-28T08:59:40;22.60;71.20
80706;DHT22;70229;48.010;7.852;2023-07-28T09:02:18;22.50;71.70
80706;DHT22;70229;48.010;7.852;2023-07-28T09:04:47;22.40;71.60
80706;DHT22;70229;48.010;7.852;2023-07-28T09:07:13;22.50;72.10
80706;DHT22;70229;48.010;7.852;2023-07-28T09:09:42;22.60;72.00
80706;DHT22;70229;48.010;7.852;2023-07-28T09:12:08;22.60;72.50
80706;DHT22;70229;48.010;7.852;2023-07-28T09:14:38;22.50;72.20
80706;DHT22;70229;48.010;7.852;2023-07-28T09:17:11;22.60;72.40
80706;DHT22;70229;48.010;7.852;2023-07-28T09:19:58;22.70;71.90
80706;DHT22;70229;48.010;7.852;2023-07-28T09:22:24;22.70;71.80
80706;DHT22;70229;48.010;7.852;2023-07-28T09:24:53;22.60;71.60
80706;DHT22;70229;48.010;7.852;2023-07-28T09:27:26;22.90;72.40
80706;DHT22;70229;48.010;7.852;2023-07-28T09:29:55;22.70;72.10
80706;DHT22;70229;48.010;7.852;2023-07-28T09:32:29;22.70;72.50
80706;DHT22;70229;48.010;7.852;2023-07-28T09:35:16;22.80;72.60
80706;DHT22;70229;48.010;7.852;2023-07-28T09:37:46;22.70;72.70
80706;DHT22;70229;48.010;7.852;2023-07-28T09:40:21;22.80;72.80
80706;DHT22;70229;48.010;7.852;2023-07-28T09:42:48;22.10;72.30
80706;DHT22;70229;48.010;7.852;2023-07-28T09:45:20;23.00;72.70
80706;DHT22;70229;48.010;7.852;2023-07-28T09:47:48;23.00;72.90
80706;DHT22;70229;48.010;7.852;2023-07-28T09:50:24;23.40;72.50
80706;DHT22;70229;48.010;7.852;2023-07-28T09:52:53;23.00;72.40
80706;DHT22;70229;48.010;7.852;2023-07-28T09:55:20;23.10;72.60
80706;DHT22;70229;48.010;7.852;2023-07-28T09:58:07;23.50;72.60
80706;DHT22;70229;48.010;7.852;2023-07-28T10:03:51;23.50;71.70
80706;DHT22;70229;48.010;7.852;2023-07-28T10:06:19;23.20;73.10
80706;DHT22;70229;48.010;7.852;2023-07-28T10:08:50;23.40;72.70
80706;DHT22;70229;48.010;7.852;2023-07-28T10:11:17;23.50;72.30
80706;DHT22;70229;48.010;7.852;2023-07-28T10:21:30;23.80;71.20
80706;DHT22;70229;48.010;7.852;2023-07-28T10:27:08;23.00;71.90
80706;DHT22;70229;48.010;7.852;2023-07-28T10:29:37;23.50;73.30
80706;DHT22;70229;48.010;7.852;2023-07-28T10:32:04;23.60;73.80
80706;DHT22;70229;48.010;7.852;2023-07-28T10:34:32;23.70;73.10
80706;DHT22;70229;48.010;7.852;2023-07-28T10:37:03;23.80;72.80
80706;DHT22;70229;48.010;7.852;2023-07-28T11:11:00;23.80;71.40
80706;DHT22;70229;48.010;7.852;2023-07-28T11:13:29;23.90;71.40
80706;DHT22;70229;48.010;7.852;2023-07-28T11:15:55;23.80;71.90
80706;DHT22;70229;48.010;7.852;2023-07-28T11:18:25;23.90;71.20
80706;DHT22;70229;48.010;7.852;2023-07-28T11:20:54;24.00;71.70
80706;DHT22;70229;48.010;7.852;2023-07-28T11:23:22;24.00;71.20
80706;DHT22;70229;48.010;7.852;2023-07-28T11:25:49;24.10;71.30
80706;DHT22;70229;48.010;7.852;2023-07-28T11:28:15;24.20;70.40
80706;DHT22;70229;48.010;7.852;2023-07-28T11:30:41;24.30;70.50
80706;DHT22;70229;48.010;7.852;2023-07-28T11:33:09;24.30;69.90
80706;DHT22;70229;48.010;7.852;2023-07-28T11:35:39;24.30;69.50
80706;DHT22;70229;48.010;7.852;2023-07-28T11:38:08;24.20;69.60
80706;DHT22;70229;48.010;7.852;2023-07-28T11:40:34;24.20;69.40
80706;DHT22;70229;48.010;7.852;2023-07-28T11:43:00;24.20;69.80
80706;DHT22;70229;48.010;7.852;2023-07-28T11:45:26;24.30;68.90
80706;DHT22;70229;48.010;7.852;2023-07-28T11:48:00;24.20;68.80
80706;DHT22;70229;48.010;7.852;2023-07-28T11:50:28;24.20;69.10
80706;DHT22;70229;48.010;7.852;2023-07-28T11:52:55;24.30;69.30
80706;DHT22;70229;48.010;7.852;2023-07-28T11:55:21;24.30;69.40
80706;DHT22;70229;48.010;7.852;2023-07-28T11:57:48;24.30;69.20
80706;DHT22;70229;48.010;7.852;2023-07-28T12:00:14;24.20;69.70
80706;DHT22;70229;48.010;7.852;2023-07-28T12:02:42;24.20;70.00
80706;DHT22;70229;48.010;7.852;2023-07-28T12:05:13;24.20;70.00
80706;DHT22;70229;48.010;7.852;2023-07-28T12:07:39;24.20;70.10
80706;DHT22;70229;48.010;7.852;2023-07-28T12:10:05;24.00;70.30
80706;DHT22;70229;48.010;7.852;2023-07-28T12:12:45;24.10;69.80
80706;DHT22;70229;48.010;7.852;2023-07-28T12:15:25;24.10;69.50
80706;DHT22;70229;48.010;7.852;2023-07-28T12:18:12;24.00;68.70
80706;DHT22;70229;48.010;7.852;2023-07-28T12:20:42;24.00;69.10
80706;DHT22;70229;48.010;7.852;2023-07-28T12:23:12;24.00;69.00
80706;DHT22;70229;48.010;7.852;2023-07-28T12:25:37;23.90;68.80
80706;DHT22;70229;48.010;7.852;2023-07-28T12:28:03;23.90;68.90
80706;DHT22;70229;48.010;7.852;2023-07-28T12:30:29;23.90;70.10
80706;DHT22;70229;48.010;7.852;2023-07-28T12:32:55;23.80;69.10
80706;DHT22;70229;48.010;7.852;2023-07-28T12:35:22;23.80;67.00
80706;DHT22;70229;48.010;7.852;2023-07-28T12:37:54;23.80;66.00
80706;DHT22;70229;48.010;7.852;2023-07-28T12:40:20;23.70;66.30
80706;DHT22;70229;48.010;7.852;2023-07-28T12:42:46;23.60;66.60
80706;DHT22;70229;48.010;7.852;2023-07-28T12:45:13;23.70;67.20
80706;DHT22;70229;48.010;7.852;2023-07-28T12:47:39;23.60;66.90
80706;DHT22;70229;48.010;7.852;2023-07-28T13:03:02;22.70;72.40
80706;DHT22;70229;48.010;7.852;2023-07-28T13:05:28;22.70;73.80
80706;DHT22;70229;48.010;7.852;2023-07-28T13:07:53;22.60;74.20
80706;DHT22;70229;48.010;7.852;2023-07-28T13:10:19;22.70;75.30
80706;DHT22;70229;48.010;7.852;2023-07-28T13:12:45;22.60;75.20
80706;DHT22;70229;48.010;7.852;2023-07-28T15:12:25;23.10;77.30
80706;DHT22;70229;48.010;7.852;2023-07-28T15:14:51;22.80;78.10
80706;DHT22;70229;48.010;7.852;2023-07-28T15:17:22;22.80;78.60
80706;DHT22;70229;48.010;7.852;2023-07-28T15:19:56;22.70;80.70
80706;DHT22;70229;48.010;7.852;2023-07-28T15:22:21;22.40;83.00
80706;DHT22;70229;48.010;7.852;2023-07-28T15:24:47;22.40;83.60
80706;DHT22;70229;48.010;7.852;2023-07-28T15:27:13;22.30;87.60
80706;DHT22;70229;48.010;7.852;2023-07-28T15:29:39;22.10;89.10
80706;DHT22;70229;48.010;7.852;2023-07-28T15:32:04;22.10;90.10
80706;DHT22;70229;48.010;7.852;2023-07-28T15:34:30;21.90;90.80
80706;DHT22;70229;48.010;7.852;2023-07-28T15:36:57;21.90;91.90
80706;DHT22;70229;48.010;7.852;2023-07-28T15:39:25;21.80;92.10
80706;DHT22;70229;48.010;7.852;2023-07-28T15:41:50;21.60;91.80
80706;DHT22;70229;48.010;7.852;2023-07-28T15:44:16;21.40;92.80
80706;DHT22;70229;48.010;7.852;2023-07-28T15:46:41;21.30;93.10
80706;DHT22;70229;48.010;7.852;2023-07-28T15:49:07;21.30;93.20
80706;DHT22;70229;48.010;7.852;2023-07-28T15:51:33;21.30;93.60
80706;DHT22;70229;48.010;7.852;2023-07-28T15:53:59;21.20;93.40
80706;DHT22;70229;48.010;7.852;2023-07-28T15:56:27;21.10;94.30
80706;DHT22;70229;48.010;7.852;2023-07-28T15:58:53;21.00;93.40
80706;DHT22;70229;48.010;7.852;2023-07-28T16:22:30;20.80;93.30
80706;DHT22;70229;48.010;7.852;2023-07-28T16:24:56;20.80;93.00
80706;DHT22;70229;48.010;7.852;2023-07-28T16:27:22;20.90;93.30
80706;DHT22;70229;48.010;7.852;2023-07-28T16:29:51;20.90;94.00
80706;DHT22;70229;48.010;7.852;2023-07-28T16:32:24;20.90;94.10
80706;DHT22;70229;48.010;7.852;2023-07-28T16:34:50;19.90;93.60
80706;DHT22;70229;48.010;7.852;2023-07-28T16:37:15;20.90;94.30
80706;DHT22;70229;48.010;7.852;2023-07-28T16:39:44;21.00;94.60
80706;DHT22;70229;48.010;7.852;2023-07-28T16:42:09;20.20;94.40
80706;DHT22;70229;48.010;7.852;2023-07-28T16:44:35;21.00;94.90
80706;DHT22;70229;48.010;7.852;2023-07-28T16:47:01;22.20;95.60
80706;DHT22;70229;48.010;7.852;2023-07-28T16:49:27;21.10;95.00
80706;DHT22;70229;48.010;7.852;2023-07-28T16:51:53;21.10;94.80
80706;DHT22;70229;48.010;7.852;2023-07-28T16:54:22;20.50;94.50
80706;DHT22;70229;48.010;7.852;2023-07-28T16:56:51;20.90;93.90
80706;DHT22;70229;48.010;7.852;2023-07-28T16:59:17;20.80;94.20
80706;DHT22;70229;48.010;7.852;2023-07-28T17:01:54;21.00;94.40
80706;DHT22;70229;48.010;7.852;2023-07-28T17:04:28;21.40;94.50
80706;DHT22;70229;48.010;7.852;2023-07-28T17:07:01;20.80;94.30
80706;DHT22;70229;48.010;7.852;2023-07-28T17:09:29;20.80;94.10
80706;DHT22;70229;48.010;7.852;2023-07-28T17:11:55;21.50;94.80
80706;DHT22;70229;48.010;7.852;2023-07-28T17:14:20;20.80;94.80
80706;DHT22;70229;48.010;7.852;2023-07-28T17:16:46;20.80;95.10
80706;DHT22;70229;48.010;7.852;2023-07-28T17:19:12;20.80;95.20
80706;DHT22;70229;48.010;7.852;2023-07-28T17:21:37;20.80;95.20
80706;DHT22;70229;48.010;7.852;2023-07-28T17:24:03;21.60;95.30
80706;DHT22;70229;48.010;7.852;2023-07-28T17:26:29;20.80;95.30
80706;DHT22;70229;48.010;7.852;2023-07-28T17:28:54;20.80;95.40
80706;DHT22;70229;48.010;7.852;2023-07-28T17:31:20;20.80;95.40
80706;DHT22;70229;48.010;7.852;2023-07-28T17:33:46;20.90;94.50
80706;DHT22;70229;48.010;7.852;2023-07-28T17:36:11;20.90;94.50
80706;DHT22;70229;48.010;7.852;2023-07-28T17:38:37;21.00;94.90
80706;DHT22;70229;48.010;7.852;2023-07-28T17:41:03;20.80;95.10
80706;DHT22;70229;48.010;7.852;2023-07-28T17:43:28;21.10;95.40
80706;DHT22;70229;48.010;7.852;2023-07-28T17:45:54;20.70;95.10
80706;DHT22;70229;48.010;7.852;2023-07-28T17:48:19;20.70;94.90
80706;DHT22;70229;48.010;7.852;2023-07-28T17:50:45;20.70;95.20
80706;DHT22;70229;48.010;7.852;2023-07-28T17:53:11;20.70;95.30
80706;DHT22;70229;48.010;7.852;2023-07-28T17:55:36;20.70;95.30
80706;DHT22;70229;48.010;7.852;2023-07-28T17:58:02;20.70;95.40
80706;DHT22;70229;48.010;7.852;2023-07-28T18:00:27;20.60;95.70
80706;DHT22;70229;48.010;7.852;2023-07-28T18:02:53;20.60;95.70
80706;DHT22;70229;48.010;7.852;2023-07-28T18:05:18;20.50;95.70
80706;DHT22;70229;48.010;7.852;2023-07-28T18:07:44;20.50;95.50
80706;DHT22;70229;48.010;7.852;2023-07-28T18:10:10;20.60;95.20
80706;DHT22;70229;48.010;7.852;2023-07-28T18:12:36;20.40;95.10
80706;DHT22;70229;48.010;7.852;2023-07-28T18:15:01;20.50;95.10
80706;DHT22;70229;48.010;7.852;2023-07-28T18:17:27;20.40;95.30
80706;DHT22;70229;48.010;7.852;2023-07-28T18:19:52;20.40;95.20
80706;DHT22;70229;48.010;7.852;2023-07-28T18:22:18;20.50;95.30
80706;DHT22;70229;48.010;7.852;2023-07-28T18:24:44;20.40;95.10
80706;DHT22;70229;48.010;7.852;2023-07-28T18:27:10;20.30;95.40
80706;DHT22;70229;48.010;7.852;2023-07-28T18:29:35;20.30;95.30
80706;DHT22;70229;48.010;7.852;2023-07-28T18:32:01;20.50;95.40
80706;DHT22;70229;48.010;7.852;2023-07-28T18:34:27;20.30;95.70
80706;DHT22;70229;48.010;7.852;2023-07-28T18:36:52;20.40;95.30
80706;DHT22;70229;48.010;7.852;2023-07-28T18:39:22;20.40;95.00
80706;DHT22;70229;48.010;7.852;2023-07-28T18:41:47;20.40;95.00
80706;DHT22;70229;48.010;7.852;2023-07-28T18:44:13;20.30;94.90
80706;DHT22;70229;48.010;7.852;2023-07-28T18:46:39;20.40;95.20
80706;DHT22;70229;48.010;7.852;2023-07-28T18:49:04;20.40;94.90
80706;DHT22;70229;48.010;7.852;2023-07-28T18:51:30;20.40;95.30
80706;DHT22;70229;48.010;7.852;2023-07-28T18:53:57;20.30;95.50
80706;DHT22;70229;48.010;7.852;2023-07-28T18:56:22;20.30;95.30
80706;DHT22;70229;48.010;7.852;2023-07-28T18:58:48;20.30;95.20
80706;DHT22;70229;48.010;7.852;2023-07-28T19:01:13;20.40;95.00
80706;DHT22;70229;48.010;7.852;2023-07-28T19:03:39;20.30;95.20